createdAt,value
2022-10-02T00:01:34.490Z,100555.66
2022-10-02T00:04:01.456Z,100571.78
2022-10-02T00:06:28.497Z,100571.34
2022-10-02T00:08:55.334Z,100568.97
2022-10-02T00:11:22.513Z,100569.97
2022-10-02T00:13:49.251Z,100576.50
2022-10-02T00:16:16.084Z,100567.00
2022-10-02T00:18:43.028Z,100572.66
2022-10-02T00:21:09.782Z,100581.81
2022-10-02T00:23:36.538Z,100582.00
2022-10-02T00:26:03.290Z,100585.44
2022-10-02T00:28:30.332Z,100583.72
2022-10-02T00:30:57.116Z,100581.78
2022-10-02T00:33:23.897Z,100585.31
2022-10-02T00:35:50.637Z,100586.19
2022-10-02T00:38:17.396Z,100585.31
2022-10-02T00:40:44.159Z,100587.25
2022-10-02T00:43:11.248Z,100582.69
2022-10-02T00:45:38.063Z,100586.75
2022-10-02T00:48:04.855Z,100590.47
2022-10-02T00:50:31.594Z,100590.66
2022-10-02T00:52:58.337Z,100591.88
2022-10-02T00:55:25.091Z,100601.38
2022-10-02T00:57:51.850Z,100593.88
2022-10-02T01:00:18.614Z,100604.22
2022-10-02T01:02:45.737Z,100611.13
2022-10-02T01:05:13.446Z,100609.03
2022-10-02T01:07:40.294Z,100605.59
2022-10-02T01:10:07.110Z,100602.19
2022-10-02T01:12:33.893Z,100606.22
2022-10-02T01:15:00.840Z,100607.88
2022-10-02T01:17:27.615Z,100607.41
2022-10-02T01:19:54.385Z,100611.47
2022-10-02T01:22:21.338Z,100602.41
2022-10-02T01:24:48.148Z,100603.59
2022-10-02T01:27:14.918Z,100609.38
2022-10-02T01:29:41.657Z,100604.50
2022-10-02T01:32:08.434Z,100606.66
2022-10-02T01:34:35.172Z,100617.44
2022-10-02T01:37:02.906Z,100621.94
2022-10-02T01:39:29.684Z,100623.75
2022-10-02T01:41:56.524Z,100624.72
2022-10-02T01:44:23.275Z,100621.59
2022-10-02T01:46:50.228Z,100619.63
2022-10-02T01:49:16.979Z,100626.22
2022-10-02T01:51:44.526Z,100623.31
2022-10-02T01:54:11.288Z,100636.97
2022-10-02T01:56:38.417Z,100617.75
2022-10-02T01:59:05.545Z,100624.38
2022-10-02T02:01:32.374Z,100628.59
2022-10-02T02:03:59.162Z,100638.09
2022-10-02T02:06:25.933Z,100627.09
2022-10-02T02:08:52.684Z,100626.44
2022-10-02T02:11:19.440Z,100628.09
2022-10-02T02:13:46.248Z,100633.00
2022-10-02T02:16:13.030Z,100630.25
2022-10-02T02:18:39.927Z,100627.03
2022-10-02T02:21:06.685Z,100633.69
2022-10-02T02:23:33.483Z,100638.47
2022-10-02T02:26:00.262Z,100646.25
2022-10-02T02:28:27.093Z,100651.25
2022-10-02T02:30:53.978Z,100664.63
2022-10-02T02:33:20.726Z,100672.34
2022-10-02T02:35:47.741Z,100672.03
2022-10-02T02:38:14.793Z,100694.38
2022-10-02T02:40:41.616Z,100701.53
2022-10-02T02:43:08.356Z,100715.00
2022-10-02T02:45:35.190Z,100712.94
2022-10-02T02:48:01.986Z,100711.47
2022-10-02T02:50:29.125Z,100715.31
2022-10-02T02:52:55.879Z,100695.00
2022-10-02T02:55:22.622Z,100685.72
2022-10-02T02:57:49.382Z,100693.97
2022-10-02T03:00:16.241Z,100678.25
2022-10-02T03:02:42.999Z,100677.09
2022-10-02T03:05:09.745Z,100673.69
2022-10-02T03:07:36.529Z,100670.53
2022-10-02T03:10:03.301Z,100672.19
2022-10-02T03:12:30.097Z,100668.97
2022-10-02T03:14:56.883Z,100677.88
2022-10-02T03:17:23.777Z,100671.91
2022-10-02T03:19:50.528Z,100671.75
2022-10-02T03:22:17.290Z,100666.56
2022-10-02T03:24:44.033Z,100661.03
2022-10-02T03:27:10.813Z,100669.59
2022-10-02T03:29:37.577Z,100672.75
2022-10-02T03:32:04.337Z,100666.28
2022-10-02T03:34:31.088Z,100658.25
2022-10-02T03:36:57.868Z,100665.97
2022-10-02T03:39:25.914Z,100665.34
2022-10-02T03:41:52.941Z,100661.63
2022-10-02T03:44:19.718Z,100667.16
2022-10-02T03:46:46.528Z,100664.84
2022-10-02T03:49:13.317Z,100666.28
2022-10-02T03:51:40.104Z,100659.13
2022-10-02T03:54:06.876Z,100670.47
2022-10-02T03:56:33.807Z,100668.38
2022-10-02T03:59:00.714Z,100661.69
2022-10-02T04:01:27.495Z,100671.38
2022-10-02T04:03:54.300Z,100668.22
2022-10-02T04:06:21.304Z,100673.16
2022-10-02T04:08:48.044Z,100665.63
2022-10-02T04:11:14.805Z,100670.34
2022-10-02T04:13:41.580Z,100669.38
2022-10-02T04:16:08.410Z,100680.41
2022-10-02T04:18:35.283Z,100671.19
2022-10-02T04:21:02.111Z,100676.97
2022-10-02T04:23:28.851Z,100672.94
2022-10-02T04:25:55.601Z,100676.47
2022-10-02T04:28:22.621Z,100671.78
2022-10-02T04:30:49.398Z,100679.84
2022-10-02T04:33:16.212Z,100679.53
2022-10-02T04:35:42.965Z,100674.88
2022-10-02T04:38:09.732Z,100679.47
2022-10-02T04:40:36.517Z,100674.97
2022-10-02T04:43:03.302Z,100678.88
2022-10-02T04:45:30.185Z,100670.09
2022-10-02T04:47:56.980Z,100676.00
2022-10-02T04:50:23.801Z,100685.50
2022-10-02T04:52:50.543Z,100693.00
2022-10-02T04:55:17.290Z,100695.63
2022-10-02T04:57:44.053Z,100694.22
2022-10-02T05:00:10.840Z,100702.78
2022-10-02T05:02:37.619Z,100706.41
2022-10-02T05:05:04.389Z,100703.03
2022-10-02T05:07:31.143Z,100707.16
2022-10-02T05:09:58.375Z,100700.34
2022-10-02T05:12:25.163Z,100705.06
2022-10-02T05:14:51.963Z,100701.38
2022-10-02T05:17:18.708Z,100697.13
2022-10-02T05:19:45.462Z,100688.75
2022-10-02T05:22:13.772Z,100692.44
2022-10-02T05:24:40.519Z,100696.56
2022-10-02T05:27:07.413Z,100699.38
2022-10-02T05:29:34.156Z,100691.47
2022-10-02T05:32:00.924Z,100692.16
2022-10-02T05:34:27.706Z,100694.31
2022-10-02T05:36:54.454Z,100690.34
2022-10-02T05:39:21.213Z,100695.69
2022-10-02T05:41:47.981Z,100692.31
2022-10-02T05:44:14.725Z,100687.19
2022-10-02T05:46:41.641Z,100684.25
2022-10-02T05:49:08.535Z,100701.84
2022-10-02T05:51:36.765Z,100692.91
2022-10-02T05:54:03.515Z,100684.31
2022-10-02T05:56:30.309Z,100678.31
2022-10-02T05:58:57.057Z,100672.75
2022-10-02T06:01:23.940Z,100663.84
2022-10-02T06:03:50.744Z,100672.47
2022-10-02T06:06:17.572Z,100678.09
2022-10-02T06:08:44.569Z,100678.75
2022-10-02T06:11:11.350Z,100676.69
2022-10-02T06:13:38.824Z,100688.22
2022-10-02T06:16:05.613Z,100696.50
2022-10-02T06:18:33.164Z,100697.63
2022-10-02T06:20:59.921Z,100701.47
2022-10-02T06:23:26.697Z,100705.69
2022-10-02T06:25:53.520Z,100716.63
2022-10-02T06:28:20.330Z,100718.75
2022-10-02T06:30:47.169Z,100715.16
2022-10-02T06:33:13.959Z,100714.56
2022-10-02T06:35:42.960Z,100722.56
2022-10-02T06:38:10.602Z,100727.50
2022-10-02T06:40:37.360Z,100728.66
2022-10-02T06:43:04.148Z,100735.00
2022-10-02T06:45:31.955Z,100737.72
2022-10-02T06:47:59.054Z,100736.75
2022-10-02T06:50:27.920Z,100736.00
2022-10-02T06:52:54.689Z,100739.22
2022-10-02T06:55:21.601Z,100742.25
2022-10-02T06:57:48.423Z,100736.09
2022-10-02T07:00:17.975Z,100739.50
2022-10-02T07:02:44.748Z,100745.41
2022-10-02T07:05:11.498Z,100746.41
2022-10-02T07:07:38.800Z,100753.28
2022-10-02T07:10:06.513Z,100751.44
2022-10-02T07:12:33.330Z,100742.09
2022-10-02T07:15:00.239Z,100745.16
2022-10-02T07:17:27.415Z,100741.00
2022-10-02T07:19:54.167Z,100735.97
2022-10-02T07:22:43.302Z,100735.59
2022-10-02T07:25:07.663Z,100727.38
2022-10-02T07:27:34.399Z,100732.41
2022-10-02T07:30:01.156Z,100734.94
2022-10-02T07:32:28.100Z,100746.13
2022-10-02T07:34:54.856Z,100735.13
2022-10-02T07:37:22.090Z,100750.69
2022-10-02T07:39:48.858Z,100762.06
2022-10-02T07:42:15.626Z,100764.19
2022-10-02T07:44:42.374Z,100760.16
2022-10-02T07:47:09.185Z,100760.31
2022-10-02T07:49:36.725Z,100755.22
2022-10-02T07:52:03.507Z,100758.59
2022-10-02T07:54:30.309Z,100761.69
2022-10-02T07:56:57.053Z,100757.00
2022-10-02T07:59:24.057Z,100758.59
2022-10-02T08:01:50.899Z,100756.09
2022-10-02T08:04:18.667Z,100759.38
2022-10-02T08:06:46.992Z,100756.69
2022-10-02T08:09:13.759Z,100752.94
2022-10-02T08:11:40.516Z,100760.09
2022-10-02T08:14:07.424Z,100751.59
2022-10-02T08:16:34.550Z,100755.66
2022-10-02T08:19:01.694Z,100755.34
2022-10-02T08:21:28.433Z,100752.88
2022-10-02T08:23:55.272Z,100749.38
2022-10-02T08:26:22.034Z,100738.38
2022-10-02T08:28:48.781Z,100747.03
2022-10-02T08:31:16.156Z,100750.09
2022-10-02T08:33:43.195Z,100747.72
2022-10-02T08:36:10.041Z,100741.38
2022-10-02T08:38:36.829Z,100740.88
2022-10-02T08:41:04.936Z,100741.16
2022-10-02T08:43:31.717Z,100738.31
2022-10-02T08:46:02.335Z,100751.84
2022-10-02T08:48:29.203Z,100741.13
2022-10-02T08:50:55.999Z,100747.09
2022-10-02T08:53:22.771Z,100744.78
2022-10-02T08:55:50.588Z,100740.59
2022-10-02T08:58:17.348Z,100735.03
2022-10-02T09:00:44.476Z,100734.41
2022-10-02T09:03:11.274Z,100741.28
2022-10-02T09:05:40.430Z,100738.63
2022-10-02T09:08:08.979Z,100742.94
2022-10-02T09:10:35.726Z,100747.25
2022-10-02T09:13:02.504Z,100741.91
2022-10-02T09:15:29.269Z,100736.34
2022-10-02T09:17:56.017Z,100737.78
2022-10-02T09:20:22.763Z,100745.19
2022-10-02T09:22:49.766Z,100741.72
2022-10-02T09:25:16.536Z,100743.16
2022-10-02T09:27:43.601Z,100741.75
2022-10-02T09:30:10.357Z,100753.25
2022-10-02T09:32:42.177Z,100739.66
2022-10-02T09:35:08.987Z,100746.78
2022-10-02T09:37:35.938Z,100750.06
2022-10-02T09:40:02.788Z,100748.59
2022-10-02T09:42:29.548Z,100754.88
2022-10-02T09:45:01.441Z,100755.88
2022-10-02T09:47:28.404Z,100751.38
2022-10-02T09:49:57.317Z,100752.88
2022-10-02T09:52:24.102Z,100746.66
2022-10-02T09:54:50.883Z,100747.72
2022-10-02T09:57:17.679Z,100748.91
2022-10-02T09:59:44.537Z,100743.91
2022-10-02T10:02:11.297Z,100744.03
2022-10-02T10:05:04.122Z,100750.13
2022-10-02T10:07:25.585Z,100761.31
2022-10-02T10:09:52.331Z,100751.63
2022-10-02T10:12:19.061Z,100750.78
2022-10-02T10:14:45.885Z,100748.16
2022-10-02T10:17:13.329Z,100747.25
2022-10-02T10:19:40.094Z,100746.88
2022-10-02T10:22:06.869Z,100758.31
2022-10-02T10:24:33.621Z,100750.50
2022-10-02T10:27:00.370Z,100750.72
2022-10-02T10:29:27.125Z,100757.88
2022-10-02T10:31:53.915Z,100749.22
2022-10-02T10:34:20.716Z,100745.31
2022-10-02T10:37:06.245Z,100745.78
2022-10-02T10:39:32.998Z,100750.63
2022-10-02T10:42:01.046Z,100749.03
2022-10-02T10:44:27.822Z,100754.09
2022-10-02T10:46:54.747Z,100751.06
2022-10-02T10:49:21.579Z,100749.09
2022-10-02T10:51:48.405Z,100747.34
2022-10-02T10:54:15.151Z,100748.59
2022-10-02T10:56:42.625Z,100750.59
2022-10-02T10:59:09.388Z,100751.91
2022-10-02T11:01:38.452Z,100746.34
2022-10-02T11:04:05.384Z,100746.50
2022-10-02T11:06:32.201Z,100752.88
2022-10-02T11:08:59.081Z,100751.75
2022-10-02T11:11:27.798Z,100749.69
2022-10-02T11:13:54.591Z,100748.16
2022-10-02T11:16:21.414Z,100739.75
2022-10-02T11:18:48.193Z,100744.78
2022-10-02T11:21:15.068Z,100739.50
2022-10-02T11:23:41.808Z,100735.50
2022-10-02T11:26:08.552Z,100740.09
2022-10-02T11:28:35.317Z,100760.69
2022-10-02T11:31:02.077Z,100748.06
2022-10-02T11:33:28.826Z,100755.81
2022-10-02T11:35:56.176Z,100761.66
2022-10-02T11:38:23.332Z,100769.25
2022-10-02T11:40:50.674Z,100769.09
2022-10-02T11:43:17.429Z,100763.41
2022-10-02T11:45:44.477Z,100753.44
2022-10-02T11:48:12.246Z,100757.19
2022-10-02T11:50:39.642Z,100768.66
2022-10-02T11:53:06.393Z,100755.72
2022-10-02T11:55:33.147Z,100758.50
2022-10-02T11:58:00.408Z,100754.47
2022-10-02T12:00:27.160Z,100764.00
2022-10-02T12:02:54.076Z,100762.59
2022-10-02T12:05:21.661Z,100764.34
2022-10-02T12:07:48.463Z,100766.91
2022-10-02T12:10:15.206Z,100754.13
2022-10-02T12:12:41.989Z,100754.88
2022-10-02T12:15:08.790Z,100754.44
2022-10-02T12:17:35.584Z,100756.41
2022-10-02T12:20:21.173Z,100745.16
2022-10-02T12:23:06.530Z,100749.31
2022-10-02T12:25:51.895Z,100749.78
2022-10-02T12:28:20.075Z,100745.63
2022-10-02T12:30:46.886Z,100748.94
2022-10-02T12:33:14.484Z,100749.06
2022-10-02T12:35:42.437Z,100741.28
2022-10-02T12:38:09.186Z,100758.34
2022-10-02T12:40:35.960Z,100755.50
2022-10-02T12:43:02.701Z,100754.28
2022-10-02T12:45:30.845Z,100760.38
2022-10-02T12:47:57.648Z,100750.28
2022-10-02T12:50:24.424Z,100749.66
2022-10-02T12:52:51.693Z,100754.47
2022-10-02T12:55:18.452Z,100743.91
2022-10-02T12:57:58.659Z,100746.81
2022-10-02T13:00:25.480Z,100745.53
2022-10-02T13:03:07.367Z,100741.09
2022-10-02T13:05:34.405Z,100748.53
2022-10-02T13:08:01.151Z,100751.63
2022-10-02T13:10:27.892Z,100759.16
2022-10-02T13:12:54.664Z,100751.38
2022-10-02T13:15:21.968Z,100750.91
2022-10-02T13:17:48.806Z,100752.72
2022-10-02T13:20:15.553Z,100759.56
2022-10-02T13:22:42.288Z,100757.03
2022-10-02T13:25:09.033Z,100761.59
2022-10-02T13:27:36.384Z,100767.16
2022-10-02T13:30:03.220Z,100765.84
2022-10-02T13:32:31.859Z,100766.09
2022-10-02T13:34:58.637Z,100767.19
2022-10-02T13:37:25.577Z,100768.34
2022-10-02T13:39:52.333Z,100765.34
2022-10-02T13:42:19.225Z,100771.31
2022-10-02T13:44:48.646Z,100780.13
2022-10-02T13:47:15.425Z,100804.13
2022-10-02T13:49:42.415Z,100819.06
2022-10-02T13:52:09.829Z,100816.06
2022-10-02T13:54:37.347Z,100816.78
2022-10-02T13:57:05.052Z,100819.59
2022-10-02T13:59:32.359Z,100818.28
2022-10-02T14:01:59.131Z,100810.97
2022-10-02T14:04:27.273Z,100804.81
2022-10-02T14:06:54.029Z,100806.91
2022-10-02T14:09:20.820Z,100796.19
2022-10-02T14:11:48.035Z,100800.25
2022-10-02T14:14:14.790Z,100814.00
2022-10-02T14:16:41.610Z,100806.84
2022-10-02T14:19:08.657Z,100813.41
2022-10-02T14:21:35.716Z,100805.97
2022-10-02T14:24:02.785Z,100800.78
2022-10-02T14:26:29.801Z,100800.88
2022-10-02T14:28:56.588Z,100807.16
2022-10-02T14:31:23.481Z,100803.91
2022-10-02T14:33:50.311Z,100802.34
2022-10-02T14:36:18.096Z,100803.69
2022-10-02T14:38:44.869Z,100811.19
2022-10-02T14:41:11.641Z,100807.31
2022-10-02T14:43:38.388Z,100808.34
2022-10-02T14:46:05.228Z,100808.50
2022-10-02T14:48:32.139Z,100814.34
2022-10-02T14:50:58.893Z,100809.22
2022-10-02T14:53:25.658Z,100810.41
2022-10-02T14:55:52.422Z,100804.63
2022-10-02T14:58:19.225Z,100801.59
2022-10-02T15:00:46.008Z,100809.16
2022-10-02T15:03:12.806Z,100815.56
2022-10-02T15:05:39.577Z,100819.97
2022-10-02T15:08:06.322Z,100809.53
2022-10-02T15:10:33.112Z,100822.41
2022-10-02T15:13:03.594Z,100817.53
2022-10-02T15:15:31.826Z,100811.88
2022-10-02T15:18:00.256Z,100818.03
2022-10-02T15:20:27.157Z,100830.31
2022-10-02T15:22:53.910Z,100827.19
2022-10-02T15:25:20.803Z,100825.28
2022-10-02T15:27:47.633Z,100826.03
2022-10-02T15:30:15.134Z,100827.25
2022-10-02T15:32:41.913Z,100833.50
2022-10-02T15:35:08.659Z,100832.22
2022-10-02T15:37:35.405Z,100834.06
2022-10-02T15:40:05.222Z,100824.69
2022-10-02T15:42:31.981Z,100824.94
2022-10-02T15:44:58.732Z,100820.00
2022-10-02T15:47:25.714Z,100824.00
2022-10-02T15:49:52.461Z,100830.31
2022-10-02T15:52:19.280Z,100836.41
2022-10-02T15:54:46.128Z,100848.19
2022-10-02T15:57:13.023Z,100853.50
2022-10-02T15:59:39.785Z,100856.50
2022-10-02T16:02:06.678Z,100864.09
2022-10-02T16:04:33.487Z,100862.09
2022-10-02T16:07:00.406Z,100863.41
2022-10-02T16:09:27.181Z,100862.38
2022-10-02T16:11:54.075Z,100874.59
2022-10-02T16:14:20.832Z,100869.50
2022-10-02T16:16:47.704Z,100882.03
2022-10-02T16:19:14.503Z,100880.31
2022-10-02T16:21:41.349Z,100894.13
2022-10-02T16:24:08.123Z,100890.78
2022-10-02T16:26:35.382Z,100892.63
2022-10-02T16:29:02.434Z,100893.56
2022-10-02T16:31:29.960Z,100900.53
2022-10-02T16:33:56.789Z,100902.53
2022-10-02T16:36:29.801Z,100907.81
2022-10-02T16:38:56.577Z,100924.28
2022-10-02T16:41:24.378Z,100925.03
2022-10-02T16:43:52.676Z,100924.97
2022-10-02T16:46:19.453Z,100930.06
2022-10-02T16:48:46.192Z,100933.78
2022-10-02T16:51:12.999Z,100940.94
2022-10-02T16:53:39.829Z,100935.53
2022-10-02T16:56:06.677Z,100941.59
2022-10-02T16:58:33.441Z,100943.31
2022-10-02T17:01:01.930Z,100948.84
2022-10-02T17:03:28.951Z,100959.63
2022-10-02T17:05:55.717Z,100956.06
2022-10-02T17:08:22.698Z,100967.78
2022-10-02T17:10:50.268Z,100965.88
2022-10-02T17:13:17.096Z,100981.00
2022-10-02T17:15:46.936Z,100975.03
2022-10-02T17:18:13.848Z,100993.56
2022-10-02T17:20:40.602Z,101008.16
2022-10-02T17:23:07.381Z,101012.16
2022-10-02T17:25:34.199Z,101008.00
2022-10-02T17:28:01.132Z,101009.41
2022-10-02T17:30:28.807Z,101019.78
2022-10-02T17:32:56.629Z,101019.06
2022-10-02T17:35:23.690Z,101005.31
2022-10-02T17:37:50.437Z,101014.22
2022-10-02T17:40:17.232Z,101014.28
2022-10-02T17:42:43.964Z,101021.59
2022-10-02T17:45:10.736Z,101022.38
2022-10-02T17:47:37.568Z,101024.16
2022-10-02T17:50:04.336Z,101032.59
2022-10-02T17:52:49.925Z,101035.03
2022-10-02T17:55:35.244Z,101036.06
2022-10-02T17:58:02.122Z,101037.47
2022-10-02T18:00:28.941Z,101045.50
2022-10-02T18:02:55.745Z,101055.13
2022-10-02T18:05:22.596Z,101051.13
2022-10-02T18:07:51.903Z,101058.91
2022-10-02T18:10:18.652Z,101072.44
2022-10-02T18:12:45.442Z,101070.28
2022-10-02T18:15:12.212Z,101069.06
2022-10-02T18:17:39.877Z,101065.97
2022-10-02T18:20:06.650Z,101078.03
2022-10-02T18:22:33.418Z,101074.53
2022-10-02T18:25:00.265Z,101079.97
2022-10-02T18:27:27.068Z,101094.75
2022-10-02T18:29:53.841Z,101091.31
2022-10-02T18:32:20.845Z,101093.41
2022-10-02T18:34:47.709Z,101105.59
2022-10-02T18:37:14.461Z,101107.09
2022-10-02T18:39:41.736Z,101103.84
2022-10-02T18:42:08.531Z,101102.13
2022-10-02T18:44:35.397Z,101097.13
2022-10-02T18:47:03.049Z,101109.91
2022-10-02T18:49:29.824Z,101112.31
2022-10-02T18:51:56.995Z,101109.31
2022-10-02T18:54:24.734Z,101113.53
2022-10-02T18:56:51.814Z,101116.00
2022-10-02T18:59:18.576Z,101121.06
2022-10-02T19:01:45.514Z,101126.47
2022-10-02T19:04:12.322Z,101140.59
2022-10-02T19:06:39.090Z,101139.75
2022-10-02T19:09:05.907Z,101148.00
2022-10-02T19:11:32.720Z,101143.13
2022-10-02T19:14:02.097Z,101149.06
2022-10-02T19:16:30.000Z,101150.38
2022-10-02T19:18:56.864Z,101154.44
2022-10-02T19:21:23.737Z,101150.03
2022-10-02T19:23:50.489Z,101151.72
2022-10-02T19:26:17.264Z,101154.09
2022-10-02T19:28:45.461Z,101149.88
2022-10-02T19:31:13.301Z,101162.06
2022-10-02T19:33:41.987Z,101154.94
2022-10-02T19:36:10.721Z,101158.28
2022-10-02T19:38:37.476Z,101171.94
2022-10-02T19:41:04.937Z,101169.22
2022-10-02T19:43:32.358Z,101177.66
2022-10-02T19:45:59.240Z,101182.38
2022-10-02T19:48:26.025Z,101179.34
2022-10-02T19:50:52.933Z,101181.78
2022-10-02T19:53:19.673Z,101191.31
2022-10-02T19:55:46.443Z,101189.78
2022-10-02T19:58:14.031Z,101199.09
2022-10-02T20:00:40.778Z,101188.19
2022-10-02T20:03:07.549Z,101196.81
2022-10-02T20:05:34.302Z,101192.50
2022-10-02T20:08:06.441Z,101201.56
2022-10-02T20:10:33.742Z,101195.06
2022-10-02T20:13:00.509Z,101202.69
2022-10-02T20:15:47.566Z,101199.31
2022-10-02T20:18:14.470Z,101204.72
2022-10-02T20:20:41.242Z,101205.56
2022-10-02T20:23:08.085Z,101205.34
2022-10-02T20:25:34.829Z,101212.34
2022-10-02T20:28:02.326Z,101219.28
2022-10-02T20:30:29.178Z,101217.31
2022-10-02T20:32:55.980Z,101217.31
2022-10-02T20:35:22.791Z,101223.78
2022-10-02T20:37:49.576Z,101225.50
2022-10-02T20:40:16.347Z,101215.66
2022-10-02T20:42:43.111Z,101224.09
2022-10-02T20:45:09.917Z,101222.97
2022-10-02T20:47:36.710Z,101232.63
2022-10-02T20:50:04.388Z,101233.97
2022-10-02T20:52:34.304Z,101238.38
2022-10-02T20:55:01.064Z,101235.63
2022-10-02T20:57:49.272Z,101246.81
2022-10-02T21:00:15.808Z,101252.53
2022-10-02T21:02:42.713Z,101248.47
2022-10-02T21:05:09.453Z,101244.47
2022-10-02T21:07:37.090Z,101252.50
2022-10-02T21:10:03.848Z,101260.09
2022-10-02T21:12:30.601Z,101256.06
2022-10-02T21:14:57.390Z,101260.03
2022-10-02T21:17:24.163Z,101262.66
2022-10-02T21:19:52.040Z,101266.81
2022-10-02T21:22:19.098Z,101268.75
2022-10-02T21:24:45.909Z,101270.47
2022-10-02T21:27:12.657Z,101274.44
2022-10-02T21:29:39.417Z,101278.16
2022-10-02T21:32:06.156Z,101281.75
2022-10-02T21:34:32.906Z,101285.13
2022-10-02T21:37:00.297Z,101271.78
2022-10-02T21:39:27.094Z,101289.72
2022-10-02T21:41:53.844Z,101289.34
2022-10-02T21:44:20.608Z,101291.00
2022-10-02T21:46:47.378Z,101296.06
2022-10-02T21:49:14.334Z,101294.38
2022-10-02T21:51:41.551Z,101292.72
2022-10-02T21:54:08.559Z,101294.19
2022-10-02T21:56:35.319Z,101291.69
2022-10-02T21:59:02.084Z,101288.78
2022-10-02T22:01:28.925Z,101296.94
2022-10-02T22:03:56.356Z,101295.38
2022-10-02T22:06:23.828Z,101300.56
2022-10-02T22:08:51.471Z,101295.28
2022-10-02T22:11:18.276Z,101303.31
2022-10-02T22:13:45.087Z,101294.00
2022-10-02T22:16:11.938Z,101295.66
2022-10-02T22:18:39.229Z,101300.34
2022-10-02T22:21:05.976Z,101298.22
2022-10-02T22:23:32.758Z,101301.78
2022-10-02T22:25:59.493Z,101309.38
2022-10-02T22:28:27.933Z,101313.78
2022-10-02T22:30:54.843Z,101310.16
2022-10-02T22:33:21.607Z,101310.09
2022-10-02T22:35:48.389Z,101310.13
2022-10-02T22:38:15.230Z,101307.16
2022-10-02T22:40:41.995Z,101313.59
2022-10-02T22:43:08.748Z,101321.03
2022-10-02T22:45:35.488Z,101320.41
2022-10-02T22:48:02.239Z,101317.88
2022-10-02T22:50:29.065Z,101318.75
2022-10-02T22:52:55.840Z,101312.59
2022-10-02T22:55:22.763Z,101321.03
2022-10-02T22:57:49.753Z,101334.19
2022-10-02T23:00:16.934Z,101327.00
2022-10-02T23:02:43.843Z,101322.94
2022-10-02T23:05:10.832Z,101329.50
2022-10-02T23:07:37.713Z,101322.19
2022-10-02T23:10:05.892Z,101333.31
2022-10-02T23:12:36.577Z,101329.78
2022-10-02T23:15:03.568Z,101323.66
2022-10-02T23:17:30.345Z,101324.09
2022-10-02T23:19:57.135Z,101324.19
2022-10-02T23:22:23.925Z,101331.59
2022-10-02T23:24:50.661Z,101327.41
2022-10-02T23:27:17.444Z,101333.13
2022-10-02T23:29:44.816Z,101342.00
2022-10-02T23:32:11.617Z,101342.63
2022-10-02T23:34:39.109Z,101339.22
2022-10-02T23:37:06.885Z,101347.47
2022-10-02T23:39:33.621Z,101350.47
2022-10-02T23:42:00.440Z,101353.41
2022-10-02T23:44:27.216Z,101354.25
2022-10-02T23:46:53.959Z,101368.28
2022-10-02T23:49:20.733Z,101364.41
2022-10-02T23:51:47.480Z,101363.03
2022-10-02T23:54:14.370Z,101369.19
2022-10-02T23:56:41.273Z,101363.47
2022-10-02T23:59:08.055Z,101362.72
